createdAt,value
2022-11-08T00:01:34.810Z,11.10
2022-11-08T00:04:22.434Z,11.10
2022-11-08T00:07:29.674Z,11.10
2022-11-08T00:10:34.013Z,11.10
2022-11-08T00:13:38.373Z,11.10
2022-11-08T00:16:25.737Z,11.00
2022-11-08T00:19:12.837Z,11.00
2022-11-08T00:22:00.088Z,11.00
2022-11-08T00:24:48.733Z,11.00
2022-11-08T00:27:35.690Z,10.90
2022-11-08T00:30:23.040Z,10.80
2022-11-08T00:33:10.230Z,10.80
2022-11-08T00:35:59.622Z,10.80
2022-11-08T00:38:46.875Z,10.80
2022-11-08T00:41:35.453Z,10.80
2022-11-08T00:44:23.149Z,10.70
2022-11-08T00:47:10.390Z,10.70
2022-11-08T00:49:57.533Z,10.70
2022-11-08T00:52:44.720Z,10.70
2022-11-08T00:55:31.920Z,10.70
2022-11-08T00:58:26.212Z,10.70
2022-11-08T01:01:16.880Z,10.60
2022-11-08T01:04:03.763Z,10.60
2022-11-08T01:06:51.113Z,10.60
2022-11-08T01:09:38.448Z,10.60
2022-11-08T01:12:25.842Z,10.60
2022-11-08T01:15:14.352Z,10.50
2022-11-08T01:18:01.596Z,10.60
2022-11-08T01:20:50.334Z,10.50
2022-11-08T01:23:38.280Z,10.50
2022-11-08T01:26:27.108Z,10.50
2022-11-08T01:29:14.466Z,10.50
2022-11-08T01:32:03.039Z,10.50
2022-11-08T01:34:50.085Z,10.50
2022-11-08T01:37:37.345Z,10.40
2022-11-08T01:40:24.530Z,10.40
2022-11-08T01:43:35.785Z,10.40
2022-11-08T01:46:37.850Z,10.40
2022-11-08T01:49:35.817Z,10.40
2022-11-08T01:52:32.288Z,10.40
2022-11-08T01:55:23.715Z,10.40
2022-11-08T01:58:14.991Z,10.50
2022-11-08T02:01:03.458Z,10.50
2022-11-08T02:03:50.861Z,10.50
2022-11-08T02:06:40.158Z,10.50
2022-11-08T02:09:28.002Z,10.50
2022-11-08T02:12:16.678Z,10.50
2022-11-08T02:15:03.824Z,10.50
2022-11-08T02:17:50.983Z,10.50
2022-11-08T02:20:38.425Z,10.60
2022-11-08T02:23:30.633Z,10.60
2022-11-08T02:26:20.735Z,10.50
2022-11-08T02:29:29.065Z,10.50
2022-11-08T02:32:16.450Z,10.50
2022-11-08T02:35:03.930Z,10.50
2022-11-08T02:37:50.944Z,10.50
2022-11-08T02:40:49.108Z,10.50
2022-11-08T02:43:37.500Z,10.40
2022-11-08T02:46:24.474Z,10.40
2022-11-08T02:49:11.288Z,10.40
2022-11-08T02:51:58.520Z,10.40
2022-11-08T02:54:45.274Z,10.40
2022-11-08T02:57:32.841Z,10.40
2022-11-08T03:00:21.979Z,10.40
2022-11-08T03:03:09.133Z,10.40
2022-11-08T03:05:57.567Z,10.40
2022-11-08T03:08:44.964Z,10.40
2022-11-08T03:11:31.943Z,10.40
2022-11-08T03:14:19.194Z,10.30
2022-11-08T03:17:07.992Z,10.30
2022-11-08T03:19:55.130Z,10.30
2022-11-08T03:22:42.506Z,10.30
2022-11-08T03:25:30.095Z,10.30
2022-11-08T03:28:22.748Z,10.30
2022-11-08T03:31:13.508Z,10.20
2022-11-08T03:34:01.924Z,10.20
2022-11-08T03:36:49.349Z,10.20
2022-11-08T03:39:36.829Z,10.20
2022-11-08T03:42:24.085Z,10.20
2022-11-08T03:45:12.170Z,10.20
2022-11-08T03:47:59.545Z,10.20
2022-11-08T03:50:48.200Z,10.20
2022-11-08T03:53:35.293Z,10.10
2022-11-08T03:56:22.645Z,10.10
2022-11-08T03:59:11.446Z,10.10
2022-11-08T04:01:58.812Z,10.00
2022-11-08T04:04:45.978Z,10.00
2022-11-08T04:07:34.727Z,10.00
2022-11-08T04:10:22.011Z,10.00
2022-11-08T04:13:27.993Z,9.90
2022-11-08T04:16:17.861Z,9.90
2022-11-08T04:19:22.307Z,9.80
2022-11-08T04:22:12.104Z,9.80
2022-11-08T04:25:00.715Z,9.70
2022-11-08T04:27:47.807Z,9.70
2022-11-08T04:30:35.482Z,9.70
2022-11-08T04:33:22.605Z,9.70
2022-11-08T04:36:13.537Z,9.60
2022-11-08T04:39:00.692Z,9.60
2022-11-08T04:41:48.956Z,9.50
2022-11-08T04:44:36.426Z,9.50
2022-11-08T04:47:23.596Z,9.50
2022-11-08T04:50:11.530Z,9.50
2022-11-08T04:52:58.625Z,9.40
2022-11-08T04:55:46.027Z,9.40
2022-11-08T04:58:39.183Z,9.40
2022-11-08T05:01:28.123Z,9.40
2022-11-08T05:04:15.220Z,9.40
2022-11-08T05:07:02.532Z,9.40
2022-11-08T05:09:49.852Z,9.40
2022-11-08T05:12:37.156Z,9.40
2022-11-08T05:15:25.670Z,9.30
2022-11-08T05:18:12.533Z,9.30
2022-11-08T05:21:18.693Z,9.30
2022-11-08T05:24:07.565Z,9.30
2022-11-08T05:26:54.915Z,9.30
2022-11-08T05:29:42.436Z,9.30
2022-11-08T05:32:30.998Z,9.30
2022-11-08T05:35:21.441Z,9.30
2022-11-08T05:38:08.444Z,9.30
2022-11-08T05:40:55.601Z,9.30
2022-11-08T05:43:43.704Z,9.30
2022-11-08T05:46:32.069Z,9.30
2022-11-08T05:49:26.691Z,9.30
2022-11-08T05:52:13.813Z,9.30
2022-11-08T05:55:01.356Z,9.30
2022-11-08T05:57:48.276Z,9.30
2022-11-08T06:00:35.229Z,9.20
2022-11-08T06:03:23.774Z,9.20
2022-11-08T06:06:13.990Z,9.20
2022-11-08T06:09:01.028Z,9.20
2022-11-08T06:11:48.080Z,9.20
2022-11-08T06:14:35.521Z,9.20
2022-11-08T06:17:26.141Z,9.30
2022-11-08T06:20:14.800Z,9.30
2022-11-08T06:23:03.403Z,9.30
2022-11-08T06:25:50.504Z,9.30
2022-11-08T06:28:38.239Z,9.30
2022-11-08T06:31:25.438Z,9.30
2022-11-08T06:34:12.630Z,9.30
2022-11-08T06:37:00.268Z,9.30
2022-11-08T06:39:48.812Z,9.30
2022-11-08T06:42:36.044Z,9.30
2022-11-08T06:45:23.340Z,9.30
2022-11-08T06:48:10.924Z,9.30
2022-11-08T06:50:58.157Z,9.30
2022-11-08T06:53:45.845Z,9.30
2022-11-08T06:56:34.474Z,9.30
2022-11-08T06:59:21.723Z,9.30
2022-11-08T07:02:12.654Z,9.30
2022-11-08T07:05:00.069Z,9.40
2022-11-08T07:07:51.955Z,9.40
2022-11-08T07:10:40.602Z,9.40
2022-11-08T07:13:29.256Z,9.40
2022-11-08T07:16:16.722Z,9.40
2022-11-08T07:19:03.670Z,9.40
2022-11-08T07:21:50.993Z,9.40
2022-11-08T07:24:38.339Z,9.50
2022-11-08T07:27:25.547Z,9.50
2022-11-08T07:30:14.809Z,9.60
2022-11-08T07:33:01.999Z,9.60
2022-11-08T07:35:49.219Z,9.60
2022-11-08T07:38:36.474Z,9.70
2022-11-08T07:41:23.750Z,9.80
2022-11-08T07:44:10.885Z,9.90
2022-11-08T07:46:59.470Z,9.90
2022-11-08T07:49:46.850Z,10.00
2022-11-08T07:52:34.238Z,10.10
2022-11-08T07:55:22.145Z,10.10
2022-11-08T07:58:11.611Z,10.20
2022-11-08T08:01:02.172Z,10.30
2022-11-08T08:03:51.026Z,10.40
2022-11-08T08:06:38.412Z,10.40
2022-11-08T08:09:25.898Z,10.50
2022-11-08T08:12:12.907Z,10.60
2022-11-08T08:15:00.359Z,10.80
2022-11-08T08:17:47.717Z,11.10
2022-11-08T08:20:38.460Z,11.40
2022-11-08T08:23:25.759Z,11.60
2022-11-08T08:26:13.120Z,12.00
2022-11-08T08:29:00.439Z,12.40
2022-11-08T08:31:47.698Z,12.50
2022-11-08T08:34:35.085Z,12.80
2022-11-08T08:37:23.890Z,12.80
2022-11-08T08:40:12.121Z,13.00
2022-11-08T08:43:00.954Z,13.20
2022-11-08T08:45:48.728Z,13.30
2022-11-08T08:48:35.798Z,13.50
2022-11-08T08:51:22.983Z,13.80
2022-11-08T08:54:11.544Z,14.10
2022-11-08T08:56:58.801Z,14.30
2022-11-08T09:02:52.489Z,14.70
2022-11-08T09:05:43.928Z,14.70
2022-11-08T09:08:31.183Z,14.80
2022-11-08T09:11:19.694Z,14.90
2022-11-08T09:14:06.796Z,15.30
2022-11-08T09:16:53.765Z,15.60
2022-11-08T09:19:40.964Z,15.80
2022-11-08T09:22:28.246Z,15.50
2022-11-08T09:25:15.657Z,15.60
2022-11-08T09:28:04.441Z,15.30
2022-11-08T09:30:51.233Z,15.10
2022-11-08T09:33:40.208Z,15.00
2022-11-08T09:36:27.668Z,15.00
2022-11-08T09:39:14.896Z,15.30
2022-11-08T09:42:28.720Z,15.40
2022-11-08T09:45:26.819Z,15.50
2022-11-08T09:48:22.839Z,15.70
2022-11-08T09:51:14.143Z,15.80
2022-11-08T09:54:03.478Z,15.90
2022-11-08T09:56:53.849Z,15.90
2022-11-08T09:59:44.601Z,16.00
2022-11-08T10:02:34.410Z,15.90
2022-11-08T10:05:22.143Z,15.60
2022-11-08T10:08:17.926Z,15.40
2022-11-08T10:11:20.581Z,15.50
2022-11-08T10:14:20.711Z,15.40
2022-11-08T10:17:27.338Z,15.40
2022-11-08T10:20:25.251Z,15.40
2022-11-08T10:23:22.432Z,15.30
2022-11-08T10:26:15.700Z,15.00
2022-11-08T10:29:08.811Z,15.20
2022-11-08T10:32:02.501Z,15.20
2022-11-08T10:34:57.180Z,15.30
2022-11-08T10:37:48.335Z,15.40
2022-11-08T10:40:42.296Z,15.20
2022-11-08T10:43:34.897Z,15.30
2022-11-08T10:46:38.057Z,15.40
2022-11-08T10:49:27.006Z,15.50
2022-11-08T10:52:20.190Z,15.50
2022-11-08T10:55:09.907Z,15.50
2022-11-08T10:57:57.429Z,15.40
2022-11-08T11:00:44.404Z,15.50
2022-11-08T11:03:31.862Z,15.60
2022-11-08T11:06:25.766Z,15.70
2022-11-08T11:09:21.269Z,15.70
2022-11-08T11:12:09.882Z,15.70
2022-11-08T11:14:58.836Z,15.60
2022-11-08T11:17:47.742Z,15.60
2022-11-08T11:20:34.923Z,15.50
2022-11-08T11:23:21.856Z,15.50
2022-11-08T11:26:17.835Z,15.60
2022-11-08T11:29:26.154Z,15.60
2022-11-08T11:32:25.201Z,15.60
2022-11-08T11:35:16.233Z,15.70
2022-11-08T11:38:07.316Z,15.80
2022-11-08T11:41:00.035Z,16.00
2022-11-08T11:43:52.653Z,15.90
2022-11-08T11:46:48.409Z,16.00
2022-11-08T11:49:36.905Z,16.10
2022-11-08T11:52:24.272Z,16.20
2022-11-08T11:55:15.343Z,16.10
2022-11-08T11:58:10.829Z,16.20
2022-11-08T12:01:03.905Z,16.20
2022-11-08T12:04:11.217Z,16.30
2022-11-08T12:07:05.483Z,16.30
2022-11-08T12:10:17.205Z,16.20
2022-11-08T12:13:14.990Z,16.20
2022-11-08T12:16:11.054Z,16.30
2022-11-08T12:19:14.447Z,16.40
2022-11-08T12:22:15.091Z,16.50
2022-11-08T12:25:11.046Z,16.50
2022-11-08T12:28:08.985Z,16.30
2022-11-08T12:31:04.595Z,16.30
2022-11-08T12:34:04.417Z,16.40
2022-11-08T12:37:14.805Z,16.40
2022-11-08T12:40:07.025Z,16.50
2022-11-08T12:43:05.907Z,16.50
2022-11-08T12:46:01.733Z,16.60
2022-11-08T12:49:17.037Z,16.50
2022-11-08T12:52:19.927Z,16.60
2022-11-08T12:55:14.779Z,16.70
2022-11-08T12:58:06.399Z,16.60
2022-11-08T13:00:58.167Z,16.60
2022-11-08T13:04:18.873Z,16.60
2022-11-08T13:07:18.144Z,16.70
2022-11-08T13:10:15.875Z,16.70
2022-11-08T13:13:20.167Z,16.70
2022-11-08T13:16:16.473Z,16.60
2022-11-08T13:19:05.832Z,16.50
2022-11-08T13:21:53.072Z,16.40
2022-11-08T13:24:44.767Z,16.40
2022-11-08T13:27:34.801Z,16.30
2022-11-08T13:30:39.156Z,16.20
2022-11-08T13:33:30.195Z,16.10
2022-11-08T13:36:27.484Z,16.00
2022-11-08T13:39:31.277Z,16.00
2022-11-08T13:42:40.749Z,15.90
2022-11-08T13:45:32.120Z,15.80
2022-11-08T13:48:42.308Z,15.80
2022-11-08T13:51:31.280Z,15.80
2022-11-08T13:54:53.040Z,15.70
2022-11-08T13:57:59.341Z,15.70
2022-11-08T14:00:47.890Z,15.70
2022-11-08T14:03:56.385Z,15.60
2022-11-08T14:06:53.579Z,15.70
2022-11-08T14:09:50.678Z,15.60
2022-11-08T14:12:45.645Z,15.60
2022-11-08T14:15:41.859Z,15.60
2022-11-08T14:18:32.973Z,15.60
2022-11-08T14:21:21.060Z,15.60
2022-11-08T14:24:16.161Z,15.60
2022-11-08T14:27:03.279Z,15.50
2022-11-08T14:30:01.048Z,15.50
2022-11-08T14:32:50.339Z,15.50
2022-11-08T14:35:37.690Z,15.50
2022-11-08T14:38:25.481Z,15.40
2022-11-08T14:41:16.869Z,15.40
2022-11-08T14:44:04.820Z,15.40
2022-11-08T14:46:52.789Z,15.30
2022-11-08T14:49:41.529Z,15.30
2022-11-08T14:52:30.472Z,15.20
2022-11-08T14:55:24.757Z,15.10
2022-11-08T14:58:14.288Z,15.10
2022-11-08T15:01:04.772Z,15.10
2022-11-08T15:03:56.450Z,15.00
2022-11-08T15:06:47.963Z,15.00
2022-11-08T15:09:36.720Z,14.90
2022-11-08T15:12:26.191Z,14.90
2022-11-08T15:15:21.375Z,14.80
2022-11-08T15:18:14.842Z,14.80
2022-11-08T15:21:04.941Z,14.80
2022-11-08T15:23:54.576Z,14.70
2022-11-08T15:27:00.586Z,14.60
2022-11-08T15:29:59.255Z,14.60
2022-11-08T15:32:47.258Z,14.50
2022-11-08T15:35:36.661Z,14.40
2022-11-08T15:38:34.426Z,14.40
2022-11-08T15:41:35.371Z,14.30
2022-11-08T15:44:24.443Z,14.30
2022-11-08T15:47:39.925Z,14.20
2022-11-08T15:50:29.836Z,14.20
2022-11-08T15:53:17.377Z,14.10
2022-11-08T15:56:06.649Z,14.10
2022-11-08T15:58:55.017Z,14.00
2022-11-08T16:01:50.884Z,13.90
2022-11-08T16:04:37.994Z,13.90
2022-11-08T16:07:25.254Z,13.90
2022-11-08T16:10:13.933Z,13.80
2022-11-08T16:13:01.469Z,13.80
2022-11-08T16:15:50.042Z,13.70
2022-11-08T16:18:37.333Z,13.70
2022-11-08T16:21:24.748Z,13.60
2022-11-08T16:24:11.570Z,13.60
2022-11-08T16:26:58.848Z,13.60
2022-11-08T16:29:46.170Z,13.50
2022-11-08T16:32:34.739Z,13.50
2022-11-08T16:35:21.476Z,13.50
2022-11-08T16:38:10.319Z,13.50
2022-11-08T16:40:57.496Z,13.40
2022-11-08T16:43:44.776Z,13.20
2022-11-08T16:46:31.982Z,13.10
2022-11-08T16:49:23.204Z,13.20
2022-11-08T16:52:11.644Z,13.20
2022-11-08T16:54:59.099Z,13.20
2022-11-08T16:57:47.018Z,13.10
2022-11-08T17:00:34.789Z,13.20
2022-11-08T17:03:24.273Z,13.20
2022-11-08T17:06:17.828Z,13.20
2022-11-08T17:09:05.465Z,13.10
2022-11-08T17:11:52.511Z,13.10
2022-11-08T17:14:39.795Z,13.10
2022-11-08T17:17:27.084Z,13.00
2022-11-08T17:20:16.089Z,13.00
2022-11-08T17:23:04.460Z,13.00
2022-11-08T17:25:51.656Z,13.00
2022-11-08T17:28:39.171Z,13.00
2022-11-08T17:31:26.491Z,13.00
2022-11-08T17:34:13.507Z,13.00
2022-11-08T17:37:00.477Z,13.00
2022-11-08T17:39:49.473Z,13.00
2022-11-08T17:42:38.450Z,13.00
2022-11-08T17:45:25.240Z,13.00
2022-11-08T17:48:12.416Z,13.00
2022-11-08T17:51:00.579Z,13.00
2022-11-08T17:53:47.628Z,13.00
2022-11-08T17:56:36.351Z,13.00
2022-11-08T17:59:23.470Z,13.00
2022-11-08T18:02:11.446Z,13.00
2022-11-08T18:04:58.613Z,13.00
2022-11-08T18:07:45.995Z,13.00
2022-11-08T18:10:35.348Z,13.00
2022-11-08T18:13:25.008Z,13.00
2022-11-08T18:16:14.234Z,13.00
2022-11-08T18:19:01.070Z,13.00
2022-11-08T18:21:49.055Z,13.00
2022-11-08T18:24:36.412Z,13.00
2022-11-08T18:27:23.656Z,13.00
2022-11-08T18:30:13.429Z,13.00
2022-11-08T18:33:00.487Z,12.90
2022-11-08T18:35:48.122Z,12.90
2022-11-08T18:38:38.943Z,12.90
2022-11-08T18:41:27.967Z,12.90
2022-11-08T18:44:15.105Z,12.80
2022-11-08T18:47:03.428Z,12.80
2022-11-08T18:49:50.853Z,12.80
2022-11-08T18:52:38.680Z,12.80
2022-11-08T18:55:25.686Z,12.70
2022-11-08T18:58:15.779Z,12.70
2022-11-08T19:01:03.165Z,12.70
2022-11-08T19:03:51.549Z,12.60
2022-11-08T19:06:39.267Z,12.60
2022-11-08T19:09:26.193Z,12.60
2022-11-08T19:12:13.608Z,12.50
2022-11-08T19:15:00.842Z,12.60
2022-11-08T19:17:52.559Z,12.40
2022-11-08T19:20:41.354Z,12.50
2022-11-08T19:23:28.949Z,12.50
2022-11-08T19:26:17.451Z,12.50
2022-11-08T19:29:05.448Z,12.60
2022-11-08T19:31:52.397Z,12.50
2022-11-08T19:34:39.664Z,12.50
2022-11-08T19:37:28.367Z,12.50
2022-11-08T19:40:15.624Z,12.50
2022-11-08T19:43:02.890Z,12.50
2022-11-08T19:45:54.326Z,12.50
2022-11-08T19:48:42.716Z,12.50
2022-11-08T19:51:31.582Z,12.40
2022-11-08T19:54:19.954Z,12.40
2022-11-08T19:57:07.137Z,12.40
2022-11-08T19:59:54.329Z,12.40
2022-11-08T20:02:41.765Z,12.40
2022-11-08T20:05:29.143Z,12.30
2022-11-08T20:08:16.711Z,12.30
2022-11-08T20:11:13.143Z,12.40
2022-11-08T20:14:02.897Z,12.40
2022-11-08T20:16:53.458Z,12.30
2022-11-08T20:19:40.880Z,12.30
2022-11-08T20:22:28.433Z,12.30
2022-11-08T20:25:15.654Z,12.30
2022-11-08T20:28:04.737Z,12.30
2022-11-08T20:30:51.497Z,12.30
2022-11-08T20:33:40.686Z,12.30
2022-11-08T20:36:31.784Z,12.20
2022-11-08T20:39:21.574Z,12.20
2022-11-08T20:42:08.711Z,12.20
2022-11-08T20:44:57.230Z,12.10
2022-11-08T20:47:44.751Z,12.10
2022-11-08T20:50:31.919Z,12.20
2022-11-08T20:53:19.266Z,12.00
2022-11-08T20:56:08.889Z,12.00
2022-11-08T20:58:56.234Z,12.00
2022-11-08T21:01:44.773Z,12.00
2022-11-08T21:04:32.056Z,12.00
2022-11-08T21:08:01.446Z,11.90
2022-11-08T21:10:42.206Z,11.90
2022-11-08T21:13:30.893Z,11.70
2022-11-08T21:16:52.673Z,11.70
2022-11-08T21:19:27.318Z,11.70
2022-11-08T21:22:17.253Z,11.80
2022-11-08T21:25:04.739Z,11.70
2022-11-08T21:27:51.922Z,11.70
2022-11-08T21:30:38.998Z,11.80
2022-11-08T21:33:26.426Z,11.80
2022-11-08T21:36:15.264Z,11.90
2022-11-08T21:39:02.057Z,11.90
2022-11-08T21:41:49.288Z,12.00
2022-11-08T21:44:36.592Z,12.00
2022-11-08T21:47:23.945Z,12.00
2022-11-08T21:50:11.433Z,12.10
2022-11-08T21:52:59.712Z,12.10
2022-11-08T21:55:47.257Z,12.10
2022-11-08T21:58:34.606Z,12.10
2022-11-08T22:01:25.568Z,12.20
2022-11-08T22:04:16.597Z,12.20
2022-11-08T22:07:04.067Z,12.20
2022-11-08T22:09:52.912Z,12.30
2022-11-08T22:12:40.557Z,12.30
2022-11-08T22:15:27.914Z,12.30
2022-11-08T22:18:16.401Z,12.30
2022-11-08T22:21:24.654Z,12.30
2022-11-08T22:24:13.878Z,12.30
2022-11-08T22:27:02.624Z,12.30
2022-11-08T22:29:50.073Z,12.30
2022-11-08T22:32:37.205Z,12.30
2022-11-08T22:35:24.503Z,12.30
2022-11-08T22:38:11.354Z,12.30
2022-11-08T22:40:58.593Z,12.30
2022-11-08T22:43:47.594Z,12.30
2022-11-08T22:46:34.964Z,12.30
2022-11-08T22:49:22.251Z,12.30
2022-11-08T22:52:09.510Z,12.30
2022-11-08T22:54:57.036Z,12.30
2022-11-08T22:57:44.290Z,12.30
2022-11-08T23:00:33.241Z,12.30
2022-11-08T23:03:20.751Z,12.30
2022-11-08T23:06:08.464Z,12.30
2022-11-08T23:08:55.838Z,12.30
2022-11-08T23:12:00.346Z,12.30
2022-11-08T23:15:04.982Z,12.30
2022-11-08T23:17:53.508Z,12.30
2022-11-08T23:20:58.186Z,12.30
2022-11-08T23:24:02.473Z,12.30
2022-11-08T23:27:07.395Z,12.30
2022-11-08T23:30:11.774Z,12.30
2022-11-08T23:33:00.426Z,12.30
2022-11-08T23:36:01.554Z,12.20
2022-11-08T23:38:48.762Z,12.20
2022-11-08T23:41:53.317Z,12.30
2022-11-08T23:44:40.441Z,12.30
2022-11-08T23:47:27.735Z,12.30
2022-11-08T23:50:16.369Z,12.30
2022-11-08T23:53:03.089Z,12.20
2022-11-08T23:55:50.324Z,12.30
2022-11-08T23:58:37.033Z,12.30
